Time;durP1;ratioP1;P1;durP2;ratioP2;P2;SDS_P1;SDS_P2;PMS_P1;PMS_P2;Temp;Humidity;BMP_temperature;BMP_pressure;BME280_temperature;BME280_humidity;BME280_pressure;Samples;Min_cycle;Max_cycle;Signal;HPM_P1;HPM_P2
2023/01/15 00:01:26;;;;;;;2.53;0.90;;;9.70;99.90;;;;;;4993341;28;20214;-45
2023/01/15 00:03:53;;;;;;;1.33;0.90;;;9.60;99.90;;;;;;4970952;28;20184;-44
2023/01/15 00:06:21;;;;;;;1.40;0.90;;;9.60;99.90;;;;;;4985249;28;20204;-44
2023/01/15 00:08:47;;;;;;;0.90;0.77;;;9.60;99.90;;;;;;4991983;28;20187;-44
2023/01/15 00:11:14;;;;;;;2.13;1.10;;;9.60;99.90;;;;;;4960113;28;20323;-44
2023/01/15 00:13:40;;;;;;;0.80;0.80;;;9.60;99.90;;;;;;4959712;28;20176;-44
2023/01/15 00:16:18;;;;;;;0.93;0.80;;;9.60;99.90;;;;;;4991811;28;20258;-45
2023/01/15 00:18:49;;;;;;;1.17;0.60;;;9.70;99.90;;;;;;4992369;28;20180;-44
2023/01/15 00:21:15;;;;;;;0.70;0.70;;;9.70;99.90;;;;;;4993343;28;20203;-44
2023/01/15 00:29:14;;;;;;;0.70;0.70;;;9.80;99.90;;;;;;4973625;28;20322;-44
2023/01/15 00:31:43;;;;;;;1.13;0.80;;;9.90;99.90;;;;;;4991532;28;20287;-43
2023/01/15 00:34:09;;;;;;;0.80;0.70;;;9.90;99.90;;;;;;4968635;28;20188;-44
2023/01/15 00:36:36;;;;;;;0.50;0.50;;;9.90;99.90;;;;;;4974462;28;20265;-44
2023/01/15 00:39:03;;;;;;;1.17;0.80;;;10.00;99.90;;;;;;4975113;28;20172;-44
2023/01/15 00:41:29;;;;;;;1.23;0.50;;;10.00;99.90;;;;;;4959136;28;20196;-44
2023/01/15 00:43:56;;;;;;;2.07;0.70;;;10.00;99.90;;;;;;4991618;28;20184;-44
2023/01/15 00:46:21;;;;;;;1.00;0.70;;;10.00;99.90;;;;;;4991560;28;20176;-45
2023/01/15 00:48:48;;;;;;;1.00;0.80;;;10.10;99.90;;;;;;4991327;28;20187;-43
2023/01/15 00:51:14;;;;;;;1.63;0.60;;;10.00;99.90;;;;;;4994753;28;20204;-44
2023/01/15 00:53:40;;;;;;;1.53;0.67;;;10.10;99.90;;;;;;4996146;28;20184;-44
2023/01/15 00:56:06;;;;;;;0.53;0.50;;;10.00;99.90;;;;;;4975159;28;20211;-45
2023/01/15 00:58:31;;;;;;;1.07;0.60;;;10.10;99.90;;;;;;4974645;28;20184;-45
2023/01/15 01:00:59;;;;;;;0.40;0.40;;;10.10;99.90;;;;;;4990716;28;20216;-44
2023/01/15 01:03:26;;;;;;;3.80;0.60;;;10.00;99.90;;;;;;4974050;28;20183;-44
2023/01/15 01:05:52;;;;;;;0.67;0.60;;;10.00;99.90;;;;;;4980947;28;20232;-44
2023/01/15 01:08:19;;;;;;;0.50;0.50;;;9.90;99.90;;;;;;4990987;28;20184;-44
2023/01/15 01:10:45;;;;;;;0.60;0.40;;;9.90;99.90;;;;;;4958289;28;20204;-45
2023/01/15 01:13:11;;;;;;;0.77;0.73;;;9.90;99.90;;;;;;4974771;28;20176;-44
2023/01/15 01:15:37;;;;;;;0.80;0.60;;;9.90;99.90;;;;;;4991146;28;20215;-44
2023/01/15 01:18:04;;;;;;;0.57;0.57;;;9.90;99.90;;;;;;4990357;28;20219;-45
2023/01/15 01:20:32;;;;;;;1.10;1.00;;;9.90;99.90;;;;;;4990901;28;20193;-44
2023/01/15 01:22:58;;;;;;;1.00;0.70;;;9.90;99.90;;;;;;4974529;28;20187;-44
2023/01/15 01:25:24;;;;;;;0.70;0.70;;;9.90;99.90;;;;;;4974576;28;20180;-44
2023/01/15 01:27:49;;;;;;;1.10;0.60;;;9.90;99.90;;;;;;4974673;28;20176;-44
2023/01/15 01:30:15;;;;;;;1.23;0.60;;;9.90;99.90;;;;;;4974650;28;20199;-45
2023/01/15 01:32:45;;;;;;;0.57;0.50;;;9.80;99.90;;;;;;4958506;28;20267;-44
2023/01/15 01:35:11;;;;;;;0.60;0.60;;;9.90;99.90;;;;;;4983726;28;20219;-44
2023/01/15 01:37:37;;;;;;;0.57;0.57;;;9.90;99.90;;;;;;4991109;28;20176;-44
2023/01/15 01:40:04;;;;;;;1.17;0.57;;;9.90;99.90;;;;;;4990415;28;20280;-44
2023/01/15 01:42:30;;;;;;;1.30;0.60;;;9.90;99.90;;;;;;4992201;28;20259;-45
2023/01/15 01:45:03;;;;;;;0.70;0.60;;;9.90;99.90;;;;;;4957865;28;20279;-45
2023/01/15 01:47:30;;;;;;;0.50;0.50;;;9.90;99.90;;;;;;4991764;28;20192;-44
2023/01/15 01:50:01;;;;;;;0.53;0.50;;;9.90;99.90;;;;;;4958107;28;20204;-44
2023/01/15 01:52:35;;;;;;;0.70;0.60;;;9.80;99.90;;;;;;4974517;28;20184;-44
2023/01/15 01:55:02;;;;;;;0.73;0.70;;;9.80;99.90;;;;;;4974037;28;20187;-44
2023/01/15 01:57:29;;;;;;;1.67;0.60;;;9.90;99.90;;;;;;4974260;28;20205;-44
2023/01/15 01:59:57;;;;;;;0.50;0.50;;;9.90;99.90;;;;;;4957470;28;20199;-44
2023/01/15 02:02:23;;;;;;;1.23;0.47;;;9.90;99.90;;;;;;4990749;28;20187;-44
2023/01/15 02:04:49;;;;;;;0.50;0.50;;;9.90;99.90;;;;;;4985783;28;20192;-42
2023/01/15 02:07:16;;;;;;;0.43;0.43;;;9.90;99.90;;;;;;4985941;28;20180;-42
2023/01/15 02:09:42;;;;;;;0.50;0.50;;;9.80;99.90;;;;;;4989110;28;20234;-42
2023/01/15 02:12:20;;;;;;;0.63;0.40;;;9.90;99.90;;;;;;4990453;28;20180;-41
2023/01/15 02:15:14;;;;;;;0.53;0.50;;;9.90;99.90;;;;;;4990292;28;20229;-40
2023/01/15 02:18:05;;;;;;;0.73;0.40;;;9.90;99.90;;;;;;4990286;28;20184;-39
2023/01/15 02:20:53;;;;;;;0.40;0.40;;;9.90;99.90;;;;;;4956931;28;20192;-40
2023/01/15 02:23:22;;;;;;;0.40;0.40;;;9.90;99.90;;;;;;4990654;28;20175;-42
2023/01/15 02:26:06;;;;;;;1.13;0.47;;;9.90;99.90;;;;;;4990070;28;20172;-41
2023/01/15 02:28:36;;;;;;;0.40;0.40;;;9.90;99.90;;;;;;4957614;28;20208;-41
2023/01/15 02:31:07;;;;;;;0.40;0.40;;;10.00;99.90;;;;;;4973952;28;20204;-42
2023/01/15 02:33:39;;;;;;;0.33;0.33;;;10.00;99.90;;;;;;4987732;28;20184;-41
2023/01/15 02:36:10;;;;;;;0.50;0.50;;;10.00;99.90;;;;;;4972088;28;20230;-41
2023/01/15 02:38:42;;;;;;;0.40;0.40;;;10.00;99.90;;;;;;4973865;28;20247;-40
2023/01/15 02:41:16;;;;;;;0.47;0.40;;;10.00;99.90;;;;;;4976042;28;20317;-42
2023/01/15 02:43:49;;;;;;;0.70;0.40;;;10.00;99.90;;;;;;4961684;28;20179;-41
2023/01/15 02:46:18;;;;;;;0.40;0.40;;;10.00;99.90;;;;;;4993905;28;20208;-42
2023/01/15 02:48:48;;;;;;;0.40;0.40;;;10.00;99.90;;;;;;4994273;28;20218;-41
2023/01/15 02:51:17;;;;;;;0.67;0.43;;;10.00;99.90;;;;;;4977903;28;20193;-41
2023/01/15 02:53:47;;;;;;;0.50;0.40;;;10.00;99.90;;;;;;4993311;28;20223;-41
2023/01/15 02:56:18;;;;;;;2.07;0.40;;;10.00;99.90;;;;;;4993842;28;20259;-41
2023/01/15 02:58:52;;;;;;;0.37;0.37;;;10.00;99.90;;;;;;4976791;28;20668;-42
2023/01/15 03:01:47;;;;;;;0.40;0.40;;;10.10;99.90;;;;;;4993526;28;20215;-41
2023/01/15 03:04:42;;;;;;;1.13;0.40;;;10.10;99.90;;;;;;4985893;28;20189;-39
2023/01/15 03:07:23;;;;;;;0.37;0.37;;;10.10;99.90;;;;;;4948494;28;20192;-41
2023/01/15 03:09:52;;;;;;;0.30;0.30;;;10.20;99.90;;;;;;4960497;28;20178;-41
2023/01/15 03:13:01;;;;;;;1.40;0.33;;;10.10;99.90;;;;;;4992952;28;20202;-40
2023/01/15 03:18:13;;;;;;;0.60;0.30;;;10.20;99.90;;;;;;4993018;28;20187;-40
2023/01/15 03:20:50;;;;;;;0.47;0.30;;;10.20;99.90;;;;;;4976777;28;20235;-39
2023/01/15 03:23:17;;;;;;;0.40;0.40;;;10.20;99.90;;;;;;4976627;28;20269;-42
2023/01/15 03:25:47;;;;;;;0.33;0.33;;;10.20;99.90;;;;;;4993246;28;20176;-42
2023/01/15 03:28:19;;;;;;;1.73;0.47;;;10.30;99.90;;;;;;4993093;28;20188;-40
2023/01/15 03:30:47;;;;;;;1.17;0.30;;;10.20;99.90;;;;;;4992475;28;20258;-42
2023/01/15 03:33:14;;;;;;;1.37;0.40;;;10.30;99.90;;;;;;4992583;28;20241;-41
2023/01/15 03:35:49;;;;;;;0.60;0.40;;;10.30;99.90;;;;;;4989861;28;20199;-42
2023/01/15 03:38:34;;;;;;;0.30;0.30;;;10.30;99.90;;;;;;4967179;28;20187;-41
2023/01/15 03:41:15;;;;;;;0.33;0.30;;;10.30;99.90;;;;;;4992005;28;20291;-42
2023/01/15 03:44:14;;;;;;;0.20;0.20;;;10.30;99.90;;;;;;4960234;28;20234;-42
2023/01/15 03:47:05;;;;;;;0.30;0.30;;;10.30;99.90;;;;;;4981379;28;20188;-42
2023/01/15 03:49:46;;;;;;;0.33;0.33;;;10.30;99.90;;;;;;4992144;28;20258;-41
2023/01/15 03:52:39;;;;;;;0.30;0.30;;;10.30;99.90;;;;;;4972897;28;20200;-41
2023/01/15 03:55:11;;;;;;;0.20;0.20;;;10.20;99.90;;;;;;4992806;28;20176;-40
2023/01/15 03:57:47;;;;;;;0.30;0.30;;;10.20;99.90;;;;;;4992195;28;20204;-42
2023/01/15 04:00:20;;;;;;;0.40;0.40;;;10.10;99.90;;;;;;4991528;28;20207;-42
2023/01/15 04:02:54;;;;;;;0.50;0.50;;;10.10;99.90;;;;;;4972961;28;20276;-42
2023/01/15 04:05:24;;;;;;;0.40;0.30;;;10.10;99.90;;;;;;4966188;28;20223;-42
2023/01/15 04:07:52;;;;;;;0.33;0.33;;;10.10;99.90;;;;;;4991322;28;20271;-41
2023/01/15 04:10:19;;;;;;;0.30;0.30;;;10.10;99.90;;;;;;4975342;28;20211;-41
2023/01/15 04:12:48;;;;;;;0.60;0.40;;;10.10;99.90;;;;;;4991838;28;20191;-41
2023/01/15 04:15:15;;;;;;;0.30;0.30;;;10.10;99.90;;;;;;4992076;28;20187;-41
2023/01/15 04:17:42;;;;;;;1.07;0.40;;;10.10;99.90;;;;;;4960021;28;20289;-41
2023/01/15 04:20:08;;;;;;;0.47;0.47;;;10.00;99.90;;;;;;4991311;28;20224;-41
2023/01/15 04:22:39;;;;;;;0.50;0.50;;;10.00;99.90;;;;;;4992089;28;20186;-41
2023/01/15 04:25:06;;;;;;;0.50;0.50;;;10.10;99.90;;;;;;4993200;28;20185;-42
2023/01/15 04:27:31;;;;;;;2.43;0.90;;;10.00;99.90;;;;;;4993406;28;20663;-40
2023/01/15 04:29:57;;;;;;;0.53;0.53;;;10.10;99.90;;;;;;4975287;28;20192;-42
2023/01/15 04:32:23;;;;;;;0.53;0.53;;;10.00;99.90;;;;;;4991764;28;20219;-42
2023/01/15 04:34:49;;;;;;;1.07;0.70;;;10.00;99.90;;;;;;4981021;28;20196;-40
2023/01/15 04:37:16;;;;;;;0.40;0.40;;;10.00;99.90;;;;;;4984632;28;20213;-41
2023/01/15 04:39:42;;;;;;;0.40;0.40;;;10.00;99.90;;;;;;4976940;28;20176;-41
2023/01/15 04:45:00;;;;;;;0.40;0.40;;;10.10;99.90;;;;;;4974391;28;20168;-42
2023/01/15 04:47:28;;;;;;;1.13;0.40;;;10.10;99.90;;;;;;4991185;28;20188;-41
2023/01/15 04:49:54;;;;;;;1.23;0.57;;;10.10;99.90;;;;;;4992323;28;20208;-40
2023/01/15 04:52:20;;;;;;;0.73;0.50;;;10.00;99.90;;;;;;4993017;28;20184;-42
2023/01/15 04:54:45;;;;;;;0.67;0.53;;;10.10;99.90;;;;;;4974636;28;20192;-41
2023/01/15 04:57:11;;;;;;;0.40;0.37;;;10.00;99.90;;;;;;4992395;28;20208;-41
2023/01/15 04:59:37;;;;;;;0.30;0.30;;;10.00;99.90;;;;;;4989694;28;20282;-42
2023/01/15 05:02:03;;;;;;;0.67;0.50;;;10.10;99.90;;;;;;4989482;28;20242;-43
2023/01/15 05:04:28;;;;;;;0.53;0.40;;;10.10;99.90;;;;;;4993129;28;20180;-44
2023/01/15 05:06:54;;;;;;;0.40;0.40;;;10.10;99.90;;;;;;4976768;28;20259;-43
2023/01/15 05:09:20;;;;;;;0.40;0.40;;;10.10;99.90;;;;;;4992482;28;20184;-44
2023/01/15 05:11:46;;;;;;;0.50;0.50;;;10.10;99.90;;;;;;4974749;28;20257;-44
2023/01/15 05:14:11;;;;;;;0.30;0.30;;;10.10;99.90;;;;;;4991993;28;20198;-41
2023/01/15 05:16:37;;;;;;;0.40;0.40;;;10.20;99.90;;;;;;4992132;28;20219;-43
2023/01/15 05:19:06;;;;;;;0.40;0.40;;;10.30;99.90;;;;;;4990520;28;20182;-44
2023/01/15 05:21:34;;;;;;;0.30;0.30;;;10.50;99.90;;;;;;4992394;28;20291;-44
2023/01/15 05:24:05;;;;;;;0.50;0.40;;;10.60;99.90;;;;;;4990595;28;20180;-44
2023/01/15 05:26:31;;;;;;;0.30;0.30;;;10.70;99.90;;;;;;4991185;28;20188;-43
2023/01/15 05:29:00;;;;;;;0.33;0.33;;;10.90;99.90;;;;;;4990055;28;20193;-43
2023/01/15 05:31:27;;;;;;;0.40;0.40;;;11.10;99.90;;;;;;4974639;28;20205;-44
2023/01/15 05:33:54;;;;;;;0.30;0.30;;;11.20;99.90;;;;;;4989160;28;20204;-43
2023/01/15 05:36:22;;;;;;;0.70;0.40;;;11.30;99.90;;;;;;4965959;28;20240;-44
2023/01/15 05:38:48;;;;;;;0.30;0.30;;;11.30;99.90;;;;;;4957969;28;20190;-44
2023/01/15 05:44:05;;;;;;;0.30;0.30;;;11.20;99.90;;;;;;4991497;28;20193;-43
2023/01/15 05:46:33;;;;;;;0.40;0.40;;;11.00;99.90;;;;;;4992038;28;20182;-44
2023/01/15 05:49:04;;;;;;;0.63;0.33;;;11.00;99.90;;;;;;4991259;28;20172;-43
2023/01/15 05:51:30;;;;;;;0.30;0.30;;;11.20;99.90;;;;;;4991543;28;20212;-44
2023/01/15 05:53:57;;;;;;;0.30;0.30;;;11.20;99.90;;;;;;4991581;28;20196;-43
2023/01/15 05:56:23;;;;;;;0.40;0.30;;;11.20;99.90;;;;;;4991761;28;20204;-43
2023/01/15 05:58:49;;;;;;;0.70;0.40;;;11.10;99.90;;;;;;4990251;28;20197;-42
2023/01/15 06:01:15;;;;;;;0.60;0.50;;;11.00;99.90;;;;;;4991540;28;20258;-44
2023/01/15 06:03:40;;;;;;;0.30;0.30;;;10.90;99.90;;;;;;4987375;28;20194;-44
2023/01/15 06:06:10;;;;;;;0.30;0.30;;;10.90;99.90;;;;;;4986206;28;20705;-44
2023/01/15 06:08:36;;;;;;;0.30;0.30;;;11.00;99.90;;;;;;4998560;28;20238;-43
2023/01/15 06:11:01;;;;;;;0.93;0.30;;;11.00;99.90;;;;;;4975461;28;20208;-44
2023/01/15 06:13:27;;;;;;;0.33;0.20;;;11.00;99.90;;;;;;4974431;28;20188;-43
2023/01/15 06:15:53;;;;;;;0.27;0.27;;;10.60;99.90;;;;;;4985086;28;20275;-44
2023/01/15 06:18:19;;;;;;;0.27;0.27;;;10.00;99.90;;;;;;4977953;28;20227;-44
2023/01/15 06:20:44;;;;;;;0.20;0.20;;;9.70;99.90;;;;;;4994149;28;20219;-44
2023/01/15 06:23:10;;;;;;;0.30;0.30;;;9.10;99.90;;;;;;4978301;28;20226;-44
2023/01/15 06:25:36;;;;;;;0.20;0.20;;;8.70;99.90;;;;;;4993942;28;20184;-43
2023/01/15 06:28:06;;;;;;;0.50;0.27;;;8.60;99.90;;;;;;4993721;28;20187;-44
2023/01/15 06:30:33;;;;;;;0.20;0.20;;;8.30;99.90;;;;;;4994167;28;20226;-43
2023/01/15 06:32:59;;;;;;;0.30;0.20;;;8.20;99.90;;;;;;4995422;28;20176;-44
2023/01/15 06:35:26;;;;;;;0.20;0.20;;;8.10;99.90;;;;;;4966810;28;20188;-44
2023/01/15 06:37:52;;;;;;;0.23;0.20;;;7.90;99.90;;;;;;4973487;28;20184;-44
2023/01/15 06:40:18;;;;;;;0.27;0.20;;;7.90;99.90;;;;;;4993538;28;20223;-41
2023/01/15 06:48:26;;;;;;;0.30;0.30;;;7.90;99.90;;;;;;4974358;28;20276;-41
2023/01/15 06:50:52;;;;;;;0.40;0.30;;;7.80;99.90;;;;;;4977434;28;20274;-43
2023/01/15 06:53:19;;;;;;;0.40;0.40;;;7.70;99.90;;;;;;4977449;28;20180;-43
2023/01/15 06:55:47;;;;;;;0.30;0.30;;;7.70;99.90;;;;;;4977385;28;20350;-43
2023/01/15 06:58:13;;;;;;;0.60;0.30;;;7.60;99.90;;;;;;4994794;28;20712;-43
2023/01/15 07:00:42;;;;;;;0.30;0.30;;;7.60;99.90;;;;;;4976663;28;20326;-41
2023/01/15 07:03:08;;;;;;;0.33;0.33;;;7.60;99.90;;;;;;4993248;28;20182;-44
2023/01/15 07:05:33;;;;;;;0.50;0.40;;;7.50;99.90;;;;;;4973254;28;20216;-43
2023/01/15 07:07:59;;;;;;;0.40;0.40;;;7.50;99.90;;;;;;4973840;28;20192;-44
2023/01/15 07:10:25;;;;;;;0.40;0.40;;;7.50;99.90;;;;;;4991458;28;20200;-44
2023/01/15 07:12:51;;;;;;;0.50;0.50;;;7.50;99.90;;;;;;4992510;28;20176;-43
2023/01/15 07:15:17;;;;;;;0.33;0.33;;;7.50;99.90;;;;;;4993153;28;20272;-43
2023/01/15 07:17:43;;;;;;;0.60;0.50;;;7.50;99.90;;;;;;4992686;28;20212;-43
2023/01/15 07:20:09;;;;;;;0.50;0.50;;;7.40;99.90;;;;;;4992363;28;20200;-43
2023/01/15 07:22:35;;;;;;;0.60;0.60;;;7.40;99.90;;;;;;4992893;28;20633;-44
2023/01/15 07:25:01;;;;;;;1.40;0.70;;;7.30;99.90;;;;;;4993200;28;20274;-44
2023/01/15 07:27:26;;;;;;;0.50;0.50;;;7.30;99.90;;;;;;4992408;28;20188;-43
2023/01/15 07:29:52;;;;;;;0.50;0.50;;;7.30;99.90;;;;;;4992346;28;20215;-43
2023/01/15 07:32:18;;;;;;;0.50;0.50;;;7.30;99.90;;;;;;4992918;28;20184;-43
2023/01/15 07:34:44;;;;;;;13.53;3.30;;;7.30;99.90;;;;;;4984341;28;20556;-43
2023/01/15 07:37:10;;;;;;;2.53;0.80;;;7.30;99.90;;;;;;4992347;28;20207;-43
2023/01/15 07:39:36;;;;;;;3.83;1.20;;;7.30;99.90;;;;;;4992559;28;20204;-43
2023/01/15 07:50:22;;;;;;;0.90;0.80;;;7.30;99.90;;;;;;4981325;28;20224;-43
2023/01/15 07:52:48;;;;;;;1.63;0.90;;;7.40;99.90;;;;;;4980295;28;20208;-42
2023/01/15 07:55:14;;;;;;;0.70;0.50;;;7.40;99.90;;;;;;4964988;28;20595;-43
2023/01/15 07:57:41;;;;;;;0.50;0.50;;;7.30;99.90;;;;;;4966660;28;20208;-44
2023/01/15 08:00:15;;;;;;;0.87;0.50;;;7.30;99.90;;;;;;4981646;28;20196;-43
2023/01/15 08:02:41;;;;;;;1.83;0.60;;;7.30;99.90;;;;;;4987832;28;20184;-43
2023/01/15 08:05:08;;;;;;;0.47;0.40;;;7.30;99.90;;;;;;4974406;28;20175;-42
2023/01/15 08:07:39;;;;;;;0.40;0.30;;;7.20;99.90;;;;;;4969381;28;20190;-43
2023/01/15 08:10:05;;;;;;;3.70;1.40;;;7.30;99.90;;;;;;4980754;28;20227;-43
2023/01/15 08:15:15;;;;;;;2.33;1.20;;;7.30;99.90;;;;;;4984398;28;20179;-43
2023/01/15 08:17:46;;;;;;;0.60;0.60;;;7.30;99.90;;;;;;4985014;28;20211;-43
2023/01/15 08:20:20;;;;;;;0.63;0.50;;;7.20;99.90;;;;;;4984829;28;20200;-41
2023/01/15 08:22:46;;;;;;;0.30;0.30;;;7.10;99.90;;;;;;4991793;28;20172;-41
2023/01/15 08:25:15;;;;;;;0.40;0.40;;;7.10;99.90;;;;;;4975853;28;20227;-41
2023/01/15 08:27:41;;;;;;;0.40;0.40;;;7.10;99.90;;;;;;4989713;28;20232;-40
2023/01/15 08:30:11;;;;;;;0.30;0.30;;;7.00;99.90;;;;;;4980952;28;20200;-42
2023/01/15 08:32:37;;;;;;;0.50;0.50;;;7.10;99.90;;;;;;4986838;28;20188;-42
2023/01/15 08:35:03;;;;;;;0.60;0.60;;;7.00;99.90;;;;;;4982710;28;20188;-41
2023/01/15 08:37:29;;;;;;;0.40;0.40;;;7.00;99.90;;;;;;4966257;28;20216;-42
2023/01/15 08:39:55;;;;;;;0.53;0.50;;;7.00;99.90;;;;;;4991510;28;20199;-39
2023/01/15 08:42:21;;;;;;;0.40;0.40;;;7.00;99.90;;;;;;4950518;28;20191;-41
2023/01/15 08:44:47;;;;;;;1.43;0.60;;;6.90;99.90;;;;;;4970153;28;20176;-39
2023/01/15 08:47:14;;;;;;;0.83;0.73;;;6.90;99.90;;;;;;4992908;28;20267;-40
2023/01/15 08:49:40;;;;;;;1.60;0.90;;;7.00;99.90;;;;;;4985014;28;20218;-39
2023/01/15 08:52:06;;;;;;;2.03;1.30;;;7.00;99.90;;;;;;4988253;28;20281;-41
2023/01/15 08:54:32;;;;;;;1.20;0.90;;;6.90;99.90;;;;;;4991445;28;20672;-41
2023/01/15 08:56:58;;;;;;;1.63;1.30;;;6.90;99.90;;;;;;4974979;28;20307;-42
2023/01/15 08:59:25;;;;;;;0.63;0.63;;;6.90;99.90;;;;;;4955620;28;20188;-39
2023/01/15 09:01:51;;;;;;;1.30;1.20;;;6.90;99.90;;;;;;4983186;28;20207;-41
2023/01/15 09:04:18;;;;;;;0.50;0.50;;;6.90;99.90;;;;;;4973862;28;20211;-41
2023/01/15 09:06:46;;;;;;;0.50;0.50;;;6.90;99.90;;;;;;4990018;28;20278;-42
2023/01/15 09:09:12;;;;;;;1.30;0.90;;;6.90;99.90;;;;;;4977854;28;20222;-41
2023/01/15 09:11:39;;;;;;;0.80;0.63;;;6.90;99.90;;;;;;4987705;28;20207;-41
2023/01/15 09:14:06;;;;;;;3.30;1.80;;;6.90;99.90;;;;;;4988024;28;20204;-42
2023/01/15 09:16:33;;;;;;;2.73;1.50;;;6.90;99.90;;;;;;4992119;28;20203;-41
2023/01/15 09:18:59;;;;;;;3.37;1.80;;;6.80;99.90;;;;;;4974650;28;20212;-42
2023/01/15 09:21:25;;;;;;;1.93;1.23;;;6.90;99.90;;;;;;4988202;28;20233;-40
2023/01/15 09:23:51;;;;;;;1.10;0.90;;;6.90;99.90;;;;;;4975226;28;20178;-42
2023/01/15 09:26:32;;;;;;;1.67;1.03;;;6.90;99.90;;;;;;4990695;28;20643;-42
2023/01/15 09:28:59;;;;;;;1.70;1.00;;;6.90;99.90;;;;;;4974567;28;20191;-41
2023/01/15 09:31:25;;;;;;;1.37;0.90;;;6.90;99.90;;;;;;4991337;28;20208;-42
2023/01/15 09:33:51;;;;;;;6.90;2.23;;;6.90;99.90;;;;;;4990798;28;20340;-41
2023/01/15 09:36:20;;;;;;;1.17;0.93;;;6.90;99.90;;;;;;4967781;28;20313;-41
2023/01/15 09:38:48;;;;;;;0.93;0.87;;;6.90;99.90;;;;;;4981491;28;20175;-43
2023/01/15 09:44:19;;;;;;;0.53;0.50;;;6.90;99.90;;;;;;4981171;28;20191;-42
2023/01/15 09:47:10;;;;;;;0.93;0.70;;;6.80;99.90;;;;;;4999607;28;20271;-38
2023/01/15 09:49:54;;;;;;;0.63;0.60;;;6.70;99.90;;;;;;4984574;28;20275;-42
2023/01/15 09:52:54;;;;;;;1.10;1.00;;;6.70;99.90;;;;;;4987882;28;20232;-39
2023/01/15 09:55:27;;;;;;;0.60;0.60;;;6.60;99.90;;;;;;4980950;28;20198;-41
2023/01/15 09:57:57;;;;;;;1.40;1.30;;;6.60;99.90;;;;;;4965926;28;20594;-40
2023/01/15 10:00:25;;;;;;;0.83;0.80;;;6.50;99.90;;;;;;4987061;28;20212;-42
2023/01/15 10:03:09;;;;;;;0.70;0.70;;;6.60;99.90;;;;;;4988734;28;20193;-42
2023/01/15 10:06:07;;;;;;;1.17;1.00;;;6.50;99.90;;;;;;4989627;28;20215;-44
2023/01/15 10:08:37;;;;;;;1.23;1.10;;;6.50;99.90;;;;;;4987952;28;20182;-41
2023/01/15 10:14:44;;;;;;;1.80;1.53;;;6.40;99.90;;;;;;4980628;28;20554;-39
2023/01/15 10:17:40;;;;;;;0.80;0.80;;;6.30;99.90;;;;;;4985722;28;20238;-43
2023/01/15 10:20:49;;;;;;;1.60;1.00;;;6.30;99.90;;;;;;4987426;28;20213;-44
2023/01/15 10:23:47;;;;;;;1.10;1.00;;;6.40;99.90;;;;;;4956259;28;20191;-41
2023/01/15 10:26:37;;;;;;;1.53;1.00;;;6.30;99.90;;;;;;4981137;28;20209;-41
2023/01/15 10:29:36;;;;;;;2.40;2.13;;;6.30;99.90;;;;;;4989124;28;20194;-41
2023/01/15 10:32:13;;;;;;;0.60;0.60;;;6.30;99.90;;;;;;4962219;28;20195;-40
2023/01/15 10:34:58;;;;;;;0.63;0.60;;;6.30;99.90;;;;;;4956237;28;20307;-41
2023/01/15 10:37:30;;;;;;;0.77;0.50;;;6.20;99.90;;;;;;4987724;28;20294;-41
2023/01/15 10:40:08;;;;;;;0.40;0.40;;;6.20;99.90;;;;;;4989543;28;20199;-42
2023/01/15 10:42:43;;;;;;;0.40;0.40;;;6.10;99.90;;;;;;4990390;28;20189;-39
2023/01/15 10:45:16;;;;;;;1.37;0.50;;;6.10;99.90;;;;;;4973641;28;20268;-39
2023/01/15 10:47:45;;;;;;;0.50;0.50;;;6.10;99.90;;;;;;4991385;28;20563;-41
2023/01/15 10:50:16;;;;;;;0.57;0.40;;;6.00;99.90;;;;;;4990891;28;20294;-41
2023/01/15 10:53:08;;;;;;;0.20;0.20;;;6.00;99.90;;;;;;4973927;28;20192;-39
2023/01/15 10:55:39;;;;;;;0.30;0.30;;;6.00;99.90;;;;;;4962189;28;20220;-41
2023/01/15 10:58:15;;;;;;;0.50;0.50;;;5.90;99.90;;;;;;4973761;28;20179;-42
2023/01/15 11:00:48;;;;;;;0.50;0.50;;;5.80;99.90;;;;;;4988171;28;20297;-41
2023/01/15 11:03:28;;;;;;;0.53;0.43;;;5.80;99.90;;;;;;4970121;28;20181;-39
2023/01/15 11:05:55;;;;;;;0.40;0.40;;;5.80;99.90;;;;;;4986083;28;20187;-41
2023/01/15 11:08:33;;;;;;;0.90;0.47;;;5.80;99.90;;;;;;4984972;28;20202;-41
2023/01/15 11:20:31;;;;;;;0.80;0.80;;;5.70;99.90;;;;;;4988110;28;20198;-42
2023/01/15 11:23:11;;;;;;;0.90;0.80;;;5.70;99.90;;;;;;4985271;28;20182;-41
2023/01/15 11:25:43;;;;;;;0.97;0.70;;;5.60;99.90;;;;;;4981716;28;20209;-41
2023/01/15 11:28:14;;;;;;;1.33;0.83;;;5.60;99.90;;;;;;4983458;28;20181;-39
2023/01/15 11:30:40;;;;;;;0.93;0.80;;;5.60;99.90;;;;;;4973305;28;20252;-38
2023/01/15 11:33:23;;;;;;;0.60;0.60;;;5.60;99.90;;;;;;4985877;28;20264;-42
2023/01/15 11:35:57;;;;;;;1.47;1.27;;;5.60;99.90;;;;;;4978992;28;20186;-41
2023/01/15 11:38:28;;;;;;;2.00;0.50;;;5.60;99.90;;;;;;4970016;28;20195;-42
2023/01/15 11:41:00;;;;;;;0.40;0.40;;;5.60;99.90;;;;;;4986774;28;20199;-40
2023/01/15 11:52:25;;;;;;;5.07;2.00;;;5.70;99.90;;;;;;4993095;28;20197;-40
2023/01/15 11:54:54;;;;;;;6.87;2.77;;;5.50;99.90;;;;;;4974566;28;20233;-40
2023/01/15 11:57:29;;;;;;;9.70;4.50;;;5.50;99.90;;;;;;4975472;28;20229;-41
2023/01/15 11:59:56;;;;;;;2.47;1.47;;;5.40;99.90;;;;;;4992623;28;20207;-41
2023/01/15 12:02:49;;;;;;;1.00;0.90;;;5.40;99.90;;;;;;4991472;28;20289;-42
2023/01/15 12:05:28;;;;;;;4.50;1.87;;;5.40;99.90;;;;;;4967561;28;20176;-41
2023/01/15 12:07:57;;;;;;;0.83;0.70;;;5.40;99.90;;;;;;4992493;28;20189;-42
2023/01/15 12:11:03;;;;;;;2.53;2.03;;;5.40;99.90;;;;;;4973806;28;20262;-41
2023/01/15 12:13:50;;;;;;;2.17;1.70;;;5.40;99.90;;;;;;4975070;28;20195;-40
2023/01/15 12:16:45;;;;;;;1.40;1.30;;;5.30;99.90;;;;;;4973978;28;20215;-41
2023/01/15 12:19:25;;;;;;;1.27;0.80;;;5.30;99.90;;;;;;4968603;28;20257;-41
2023/01/15 12:22:03;;;;;;;0.90;0.70;;;5.30;99.90;;;;;;4982069;28;20201;-41
2023/01/15 12:24:34;;;;;;;1.10;1.00;;;5.20;99.90;;;;;;5001154;28;20179;-41
2023/01/15 12:27:37;;;;;;;0.70;0.60;;;5.20;99.90;;;;;;4965309;28;20234;-40
2023/01/15 12:30:20;;;;;;;1.43;0.87;;;5.20;99.90;;;;;;4984899;28;20197;-40
2023/01/15 12:32:57;;;;;;;0.80;0.77;;;5.10;99.90;;;;;;4997130;28;20650;-41
2023/01/15 12:35:33;;;;;;;1.17;1.00;;;5.10;99.90;;;;;;4988501;28;20205;-40
2023/01/15 12:38:23;;;;;;;2.93;1.60;;;5.10;99.90;;;;;;4982608;28;20310;-41
2023/01/15 12:40:59;;;;;;;0.97;0.80;;;5.00;99.90;;;;;;4980408;28;20248;-41
2023/01/15 12:46:17;;;;;;;1.00;0.90;;;5.00;99.90;;;;;;4972340;28;20189;-39
2023/01/15 12:48:46;;;;;;;1.63;0.60;;;4.90;99.90;;;;;;4973431;28;20196;-39
2023/01/15 12:51:21;;;;;;;1.40;0.90;;;5.00;99.90;;;;;;4972068;28;20212;-38
2023/01/15 12:53:54;;;;;;;1.43;1.07;;;5.00;99.90;;;;;;4955935;28;20193;-41
2023/01/15 12:56:28;;;;;;;1.07;0.97;;;5.00;99.90;;;;;;4975746;28;20213;-40
2023/01/15 12:59:04;;;;;;;1.13;0.80;;;5.00;99.90;;;;;;4994827;28;20197;-41
2023/01/15 13:02:08;;;;;;;0.90;0.80;;;5.00;99.90;;;;;;5012307;28;20215;-40
2023/01/15 13:04:46;;;;;;;3.43;0.70;;;5.00;99.90;;;;;;4981615;28;20638;-39
2023/01/15 13:07:30;;;;;;;2.17;1.70;;;5.00;99.90;;;;;;4952403;28;20191;-40
2023/01/15 13:10:06;;;;;;;1.47;1.20;;;5.00;99.90;;;;;;4996220;28;20228;-41
2023/01/15 13:12:33;;;;;;;3.03;1.47;;;5.00;99.90;;;;;;4985507;28;20185;-39
2023/01/15 13:15:00;;;;;;;1.10;1.00;;;5.00;99.90;;;;;;4979553;28;20256;-39
2023/01/15 13:17:58;;;;;;;1.00;0.93;;;5.00;99.90;;;;;;4999753;28;20221;-41
2023/01/15 13:20:45;;;;;;;1.50;1.40;;;5.00;99.90;;;;;;4979289;28;20204;-41
2023/01/15 13:23:22;;;;;;;1.90;1.40;;;5.00;99.90;;;;;;4998090;28;20283;-41
2023/01/15 13:26:06;;;;;;;4.37;2.13;;;5.00;99.90;;;;;;4972894;28;20183;-39
2023/01/15 13:28:54;;;;;;;1.30;1.20;;;5.10;99.90;;;;;;4990747;28;20238;-41
2023/01/15 13:31:42;;;;;;;1.70;1.57;;;5.10;99.90;;;;;;4968343;28;20209;-41
2023/01/15 13:34:19;;;;;;;2.33;1.37;;;5.10;99.90;;;;;;4972196;28;20184;-39
2023/01/15 13:36:47;;;;;;;1.13;0.90;;;5.20;99.90;;;;;;4990478;28;20209;-40
2023/01/15 13:39:21;;;;;;;2.57;1.20;;;5.10;99.90;;;;;;4978191;28;20206;-41
2023/01/15 13:44:49;;;;;;;9.53;4.77;;;5.20;99.90;;;;;;4982696;28;20186;-41
2023/01/15 13:47:22;;;;;;;4.67;1.67;;;5.20;99.90;;;;;;4976062;28;20182;-43
2023/01/15 13:50:02;;;;;;;2.70;1.50;;;5.30;99.90;;;;;;4975187;28;20189;-42
2023/01/15 13:52:31;;;;;;;2.43;1.20;;;5.20;99.90;;;;;;4983923;28;20272;-39
2023/01/15 13:55:01;;;;;;;3.60;1.23;;;5.20;99.90;;;;;;4977964;28;20176;-41
2023/01/15 13:57:35;;;;;;;2.23;0.87;;;5.20;99.90;;;;;;4966155;28;20216;-38
2023/01/15 14:00:05;;;;;;;1.20;0.80;;;5.20;99.90;;;;;;4974167;28;20196;-40
2023/01/15 14:02:39;;;;;;;3.07;1.07;;;5.30;99.90;;;;;;4978013;28;20282;-40
2023/01/15 14:05:25;;;;;;;1.73;0.93;;;5.30;99.90;;;;;;4983834;28;20181;-41
2023/01/15 14:07:51;;;;;;;3.87;1.27;;;5.40;99.90;;;;;;4981805;28;20275;-40
2023/01/15 14:10:16;;;;;;;4.03;1.60;;;5.50;99.90;;;;;;4973570;28;20301;-41
2023/01/15 14:13:18;;;;;;;6.13;2.87;;;5.70;99.90;;;;;;4971235;28;20193;-43
2023/01/15 14:16:14;;;;;;;2.27;1.30;;;5.90;99.90;;;;;;4970591;28;20189;-42
2023/01/15 14:18:39;;;;;;;2.70;1.43;;;6.00;99.90;;;;;;4983956;28;20306;-41